createdAt,value
2019-05-11T00:00:57.429Z,88.72
2019-05-11T00:01:57.609Z,88.51
2019-05-11T00:02:58.357Z,89.34
2019-05-11T00:03:58.010Z,89.44
2019-05-11T00:04:58.864Z,88.72
2019-05-11T00:05:58.409Z,88.89
2019-05-11T00:06:58.587Z,89.29
2019-05-11T00:07:58.732Z,88.98
2019-05-11T00:08:58.881Z,88.47
2019-05-11T00:09:59.031Z,87.82
2019-05-11T00:10:59.206Z,87.30
2019-05-11T00:11:59.380Z,86.54
2019-05-11T00:12:59.540Z,86.13
2019-05-11T00:13:59.718Z,86.44
2019-05-11T00:14:59.907Z,86.09
2019-05-11T00:16:00.083Z,86.09
2019-05-11T00:17:00.249Z,86.09
2019-05-11T00:18:01.391Z,85.44
2019-05-11T00:19:00.535Z,85.99
2019-05-11T00:20:00.741Z,85.64
2019-05-11T00:21:00.951Z,86.30
2019-05-11T00:22:01.121Z,86.60
2019-05-11T00:23:01.371Z,87.32
2019-05-11T00:24:02.356Z,86.75
2019-05-11T00:25:01.608Z,87.05
2019-05-11T00:26:01.787Z,87.37
2019-05-11T00:27:01.979Z,87.30
2019-05-11T00:28:02.217Z,87.82
2019-05-11T00:29:02.408Z,88.02
2019-05-11T00:30:02.586Z,87.92
2019-05-11T00:31:03.356Z,88.12
2019-05-11T00:32:02.999Z,88.02
2019-05-11T00:33:03.201Z,88.02
2019-05-11T00:34:03.355Z,88.37
2019-05-11T00:35:03.523Z,88.95
2019-05-11T00:36:04.369Z,88.64
2019-05-11T00:37:03.906Z,88.68
2019-05-11T00:38:04.058Z,89.29
2019-05-11T00:39:04.190Z,88.37
2019-05-11T00:40:13.942Z,89.50
2019-05-11T00:41:06.582Z,89.29
2019-05-11T00:42:04.841Z,88.78
2019-05-11T00:43:04.984Z,89.29
2019-05-11T00:44:05.865Z,89.60
2019-05-11T00:45:06.349Z,89.81
2019-05-11T00:46:05.620Z,89.81
2019-05-11T00:47:05.784Z,89.70
2019-05-11T00:48:05.935Z,89.40
2019-05-11T00:49:06.372Z,89.40
2019-05-11T00:50:06.228Z,88.98
2019-05-11T00:51:06.479Z,88.98
2019-05-11T00:52:06.720Z,88.74
2019-05-11T00:53:06.891Z,88.23
2019-05-11T00:54:07.033Z,88.23
2019-05-11T00:55:07.865Z,88.02
2019-05-11T00:56:07.371Z,88.12
2019-05-11T00:57:07.532Z,88.84
2019-05-11T00:58:07.725Z,88.53
2019-05-11T00:59:20.873Z,87.92
2019-05-11T01:00:10.015Z,88.12
2019-05-11T01:01:08.122Z,88.33
2019-05-11T01:02:08.283Z,87.92
2019-05-11T01:03:08.882Z,87.92
2019-05-11T01:04:09.406Z,88.12
2019-05-11T01:05:08.821Z,88.43
2019-05-11T01:06:09.013Z,88.06
2019-05-11T01:07:09.189Z,88.68
2019-05-11T01:08:09.372Z,88.43
2019-05-11T01:09:09.556Z,88.27
2019-05-11T01:10:23.034Z,88.47
2019-05-11T01:11:11.970Z,88.17
2019-05-11T01:12:10.105Z,88.68
2019-05-11T01:13:10.390Z,88.00
2019-05-11T01:14:10.878Z,88.92
2019-05-11T01:15:10.680Z,89.44
2019-05-11T01:16:10.860Z,90.22
2019-05-11T01:17:11.058Z,90.12
2019-05-11T01:18:11.788Z,91.04
2019-05-11T01:19:12.374Z,90.42
2019-05-11T01:20:11.670Z,90.22
2019-05-11T01:21:11.879Z,90.01
2019-05-11T01:22:12.867Z,89.70
2019-05-11T01:23:12.389Z,89.40
2019-05-11T01:24:12.438Z,89.70
2019-05-11T01:25:12.630Z,89.50
2019-05-11T01:26:13.848Z,89.23
2019-05-11T01:27:13.006Z,89.66
2019-05-11T01:28:13.885Z,87.77
2019-05-11T01:29:13.398Z,87.40
2019-05-11T01:30:13.875Z,87.98
2019-05-11T01:31:13.784Z,88.12
2019-05-11T01:32:13.940Z,87.96
2019-05-11T01:33:14.883Z,89.03
2019-05-11T01:34:15.303Z,88.89
2019-05-11T01:35:14.421Z,88.17
2019-05-11T01:36:14.613Z,88.33
2019-05-11T01:37:14.791Z,87.51
2019-05-11T01:38:15.386Z,87.37
2019-05-11T01:39:15.197Z,86.58
2019-05-11T01:40:15.364Z,86.68
2019-05-11T01:41:15.521Z,88.02
2019-05-11T01:42:16.372Z,88.64
2019-05-11T01:43:15.917Z,89.15
2019-05-11T01:44:16.121Z,88.08
2019-05-11T01:45:16.269Z,87.92
2019-05-11T01:46:16.442Z,88.08
2019-05-11T01:47:16.603Z,88.53
2019-05-11T01:48:16.756Z,88.43
2019-05-11T01:49:16.923Z,88.53
2019-05-11T01:50:17.116Z,87.98
2019-05-11T01:51:17.278Z,86.95
2019-05-11T01:52:17.454Z,86.50
2019-05-11T01:53:18.381Z,86.50
2019-05-11T01:54:17.815Z,85.99
2019-05-11T01:55:17.992Z,87.16
2019-05-11T01:56:18.160Z,88.39
2019-05-11T01:57:18.365Z,87.98
2019-05-11T01:58:18.571Z,87.88
2019-05-11T01:59:18.773Z,87.88
2019-05-11T02:00:18.934Z,87.22
2019-05-11T02:01:19.109Z,87.22
2019-05-11T02:02:19.269Z,87.46
2019-05-11T02:03:19.480Z,88.08
2019-05-11T02:04:19.641Z,87.77
2019-05-11T02:05:19.846Z,88.18
2019-05-11T02:06:20.007Z,88.95
2019-05-11T02:07:20.185Z,88.90
2019-05-11T02:08:20.367Z,88.64
2019-05-11T02:09:20.529Z,89.36
2019-05-11T02:10:20.728Z,88.64
2019-05-11T02:11:20.893Z,89.87
2019-05-11T02:12:21.878Z,89.56
2019-05-11T02:13:21.878Z,89.56
2019-05-11T02:14:21.396Z,89.66
2019-05-11T02:15:21.623Z,89.66
2019-05-11T02:16:21.903Z,89.76
2019-05-11T02:17:22.905Z,89.56
2019-05-11T02:18:22.056Z,89.56
2019-05-11T02:19:22.229Z,89.97
2019-05-11T02:20:22.420Z,89.76
2019-05-11T02:21:22.597Z,88.64
2019-05-11T02:22:22.740Z,88.89
2019-05-11T02:23:22.898Z,88.53
2019-05-11T02:24:23.041Z,89.66
2019-05-11T02:25:23.198Z,90.80
2019-05-11T02:26:23.390Z,90.48
2019-05-11T02:27:23.589Z,90.89
2019-05-11T02:28:23.744Z,90.08
2019-05-11T02:29:23.900Z,89.56
2019-05-11T02:30:24.057Z,90.08
2019-05-11T02:31:24.239Z,91.00
2019-05-11T02:32:24.402Z,90.63
2019-05-11T02:33:24.576Z,90.63
2019-05-11T02:34:24.724Z,91.61
2019-05-11T02:35:24.868Z,91.72
2019-05-11T02:36:25.519Z,91.86
2019-05-11T02:37:25.879Z,91.97
2019-05-11T02:38:25.881Z,91.61
2019-05-11T02:39:25.529Z,91.51
2019-05-11T02:40:25.699Z,90.89
2019-05-11T02:41:36.058Z,91.10
2019-05-11T02:42:27.982Z,89.40
2019-05-11T02:43:26.211Z,88.06
2019-05-11T02:44:26.352Z,88.06
2019-05-11T02:45:26.488Z,89.50
2019-05-11T02:46:26.688Z,89.03
2019-05-11T02:47:27.372Z,88.51
2019-05-11T02:48:26.983Z,89.34
2019-05-11T02:49:28.401Z,88.62
2019-05-11T02:50:28.264Z,88.31
2019-05-11T02:51:27.407Z,90.12
2019-05-11T02:52:27.574Z,90.42
2019-05-11T02:53:27.715Z,89.42
2019-05-11T02:54:27.860Z,87.20
2019-05-11T02:55:28.001Z,87.51
2019-05-11T02:56:28.888Z,89.21
2019-05-11T02:57:28.413Z,87.84
2019-05-11T02:58:28.572Z,86.40
2019-05-11T02:59:30.040Z,86.13
2019-05-11T03:00:29.902Z,87.37
2019-05-11T03:01:30.027Z,85.44
2019-05-11T03:02:29.169Z,83.41
2019-05-11T03:03:30.330Z,82.77
2019-05-11T03:04:29.487Z,83.12
2019-05-11T03:05:30.398Z,85.47
2019-05-11T03:06:29.832Z,85.38
2019-05-11T03:07:30.020Z,86.30
2019-05-11T03:08:30.194Z,86.19
2019-05-11T03:09:30.371Z,87.53
2019-05-11T03:10:30.547Z,88.08
2019-05-11T03:11:30.712Z,88.24
2019-05-11T03:12:30.906Z,88.39
2019-05-11T03:13:31.076Z,89.17
2019-05-11T03:14:31.264Z,89.42
2019-05-11T03:15:32.418Z,89.42
2019-05-11T03:16:31.552Z,90.09
2019-05-11T03:17:31.713Z,89.27
2019-05-11T03:18:31.890Z,89.23
2019-05-11T03:19:32.021Z,88.21
2019-05-11T03:20:32.158Z,89.27
2019-05-11T03:21:32.894Z,89.23
2019-05-11T03:22:32.518Z,88.45
2019-05-11T03:23:32.903Z,88.56
2019-05-11T03:24:32.822Z,88.51
2019-05-11T03:25:32.982Z,87.70
2019-05-11T03:26:33.142Z,87.73
2019-05-11T03:27:33.321Z,87.08
2019-05-11T03:28:33.469Z,87.08
2019-05-11T03:29:33.659Z,87.08
2019-05-11T03:30:34.383Z,86.98
2019-05-11T03:31:35.901Z,87.08
2019-05-11T03:32:34.287Z,88.10
2019-05-11T03:33:34.438Z,88.96
2019-05-11T03:34:34.599Z,89.23
2019-05-11T03:35:34.783Z,89.37
2019-05-11T03:36:34.973Z,89.99
2019-05-11T03:37:35.138Z,89.99
2019-05-11T03:38:35.282Z,90.50
2019-05-11T03:39:35.463Z,90.44
2019-05-11T03:40:35.616Z,91.37
2019-05-11T03:41:35.846Z,90.85
2019-05-11T03:42:35.988Z,91.57
2019-05-11T03:43:36.134Z,91.67
2019-05-11T03:44:36.254Z,91.06
2019-05-11T03:45:36.398Z,90.44
2019-05-11T03:46:37.573Z,90.14
2019-05-11T03:47:36.712Z,89.72
2019-05-11T03:48:36.870Z,91.06
2019-05-11T03:49:38.010Z,91.57
2019-05-11T03:50:37.262Z,91.88
2019-05-11T03:51:37.431Z,89.89
2019-05-11T03:52:37.577Z,89.69
2019-05-11T03:53:37.755Z,89.89
2019-05-11T03:54:37.872Z,90.40
2019-05-11T03:55:38.027Z,89.78
2019-05-11T03:56:38.172Z,87.30
2019-05-11T03:57:38.312Z,86.18
2019-05-11T03:58:39.391Z,84.88
2019-05-11T03:59:38.650Z,86.15
2019-05-11T04:00:38.807Z,87.28
2019-05-11T04:01:39.912Z,89.17
2019-05-11T04:02:39.412Z,89.78
2019-05-11T04:03:39.316Z,89.64
2019-05-11T04:04:39.475Z,89.84
2019-05-11T04:05:39.611Z,89.75
2019-05-11T04:06:39.743Z,88.82
2019-05-11T04:07:39.897Z,89.23
2019-05-11T04:08:40.031Z,88.04
2019-05-11T04:09:40.160Z,89.58
2019-05-11T04:10:40.283Z,89.17
2019-05-11T04:11:40.466Z,89.17
2019-05-11T04:12:40.634Z,89.27
2019-05-11T04:13:40.793Z,89.01
2019-05-11T04:14:40.941Z,89.66
2019-05-11T04:15:41.078Z,90.32
2019-05-11T04:16:41.256Z,91.14
2019-05-11T04:17:41.408Z,91.86
2019-05-11T04:18:41.559Z,92.38
2019-05-11T04:19:41.740Z,92.01
2019-05-11T04:20:41.911Z,92.32
2019-05-11T04:21:42.068Z,92.83
2019-05-11T04:22:42.267Z,94.07
2019-05-11T04:23:42.427Z,91.25
2019-05-11T04:24:42.583Z,91.60
2019-05-11T04:25:42.724Z,91.29
2019-05-11T04:26:42.869Z,92.01
2019-05-11T04:27:43.060Z,91.86
2019-05-11T04:28:43.235Z,92.27
2019-05-11T04:29:43.404Z,91.76
2019-05-11T04:30:43.560Z,92.13
2019-05-11T04:31:43.673Z,90.94
2019-05-11T04:32:43.802Z,91.00
2019-05-11T04:33:44.971Z,91.97
2019-05-11T04:34:44.066Z,92.64
2019-05-11T04:35:44.893Z,92.74
2019-05-11T04:36:44.385Z,92.95
2019-05-11T04:37:44.549Z,92.58
2019-05-11T04:38:44.680Z,92.38
2019-05-11T04:39:44.796Z,92.38
2019-05-11T04:40:45.035Z,92.27
2019-05-11T04:41:45.901Z,93.26
2019-05-11T04:42:55.389Z,90.46
2019-05-11T04:43:47.560Z,88.33
2019-05-11T04:44:45.803Z,86.44
2019-05-11T04:45:45.934Z,86.58
2019-05-11T04:46:46.176Z,86.73
2019-05-11T04:47:46.319Z,85.97
2019-05-11T04:48:46.475Z,84.39
2019-05-11T04:49:46.631Z,82.90
2019-05-11T04:50:46.751Z,83.76
2019-05-11T04:51:46.881Z,86.60
2019-05-11T04:52:47.013Z,87.73
2019-05-11T04:53:47.162Z,89.43
2019-05-11T04:54:47.898Z,88.04
2019-05-11T04:55:47.557Z,88.49
2019-05-11T04:56:47.695Z,90.18
2019-05-11T04:57:47.846Z,90.28
2019-05-11T04:58:47.999Z,89.83
2019-05-11T04:59:48.159Z,90.50
2019-05-11T05:00:48.417Z,89.69
2019-05-11T05:01:48.564Z,89.48
2019-05-11T05:02:48.729Z,90.03
2019-05-11T05:03:54.208Z,90.89
2019-05-11T05:04:51.019Z,91.41
2019-05-11T05:05:49.163Z,92.58
2019-05-11T05:06:59.423Z,92.89
2019-05-11T05:07:52.404Z,92.89
2019-05-11T05:08:49.746Z,91.80
2019-05-11T05:09:49.917Z,92.89
2019-05-11T05:10:52.595Z,91.97
2019-05-11T05:11:52.284Z,93.20
2019-05-11T05:12:51.956Z,92.83
2019-05-11T05:13:53.634Z,93.14
2019-05-11T05:14:51.925Z,93.40
2019-05-11T05:15:51.425Z,93.51
2019-05-11T05:16:51.211Z,94.02
2019-05-11T05:17:51.370Z,92.89
2019-05-11T05:18:51.534Z,92.17
2019-05-11T05:19:51.700Z,92.11
2019-05-11T05:20:51.856Z,93.14
2019-05-11T05:21:52.011Z,94.07
2019-05-11T05:22:52.250Z,93.76
2019-05-11T05:23:52.401Z,93.86
2019-05-11T05:24:52.538Z,93.76
2019-05-11T05:25:52.666Z,92.32
2019-05-11T05:26:52.815Z,93.59
2019-05-11T05:27:52.923Z,93.80
2019-05-11T05:28:53.165Z,93.65
2019-05-11T05:29:53.286Z,94.48
2019-05-11T05:30:53.421Z,94.48
2019-05-11T05:31:53.907Z,94.68
2019-05-11T05:32:53.923Z,94.84
2019-05-11T05:33:53.938Z,94.12
2019-05-11T05:34:54.085Z,93.61
2019-05-11T05:35:54.200Z,93.46
2019-05-11T05:36:54.338Z,92.74
2019-05-11T05:37:54.498Z,93.83
2019-05-11T05:38:54.664Z,92.14
2019-05-11T05:39:54.824Z,90.65
2019-05-11T05:40:54.947Z,90.95
2019-05-11T05:41:57.520Z,91.27
2019-05-11T05:42:56.301Z,91.99
2019-05-11T05:43:55.419Z,91.27
2019-05-11T05:44:55.544Z,92.91
2019-05-11T05:45:55.668Z,92.91
2019-05-11T05:46:55.803Z,90.95
2019-05-11T05:47:55.949Z,90.24
2019-05-11T05:48:56.425Z,89.46
2019-05-11T05:49:56.298Z,89.66
2019-05-11T05:50:56.453Z,90.42
2019-05-11T05:51:58.351Z,92.44
2019-05-11T05:52:58.409Z,92.27
2019-05-11T05:53:57.048Z,90.83
2019-05-11T05:54:57.915Z,91.31
2019-05-11T05:55:57.899Z,91.10
2019-05-11T05:56:58.433Z,91.86
2019-05-11T05:57:57.803Z,92.27
2019-05-11T05:58:57.973Z,91.86
2019-05-11T05:59:58.115Z,92.44
2019-05-11T06:00:58.905Z,93.36
2019-05-11T06:01:58.398Z,92.60
2019-05-11T06:02:58.531Z,92.04
2019-05-11T06:03:58.651Z,92.04
2019-05-11T06:04:58.916Z,91.37
2019-05-11T06:05:59.040Z,92.29
2019-05-11T06:06:59.904Z,93.05
2019-05-11T06:07:59.376Z,92.29
2019-05-11T06:08:59.509Z,93.73
2019-05-11T06:09:59.668Z,93.36
2019-05-11T06:10:59.829Z,94.18
2019-05-11T06:11:59.980Z,94.04
2019-05-11T06:13:00.147Z,93.83
2019-05-11T06:14:00.321Z,92.86
2019-05-11T06:15:00.458Z,93.07
2019-05-11T06:16:00.599Z,93.38
2019-05-11T06:17:00.749Z,93.21
2019-05-11T06:18:00.884Z,92.91
2019-05-11T06:19:01.073Z,93.38
2019-05-11T06:20:01.320Z,93.73
2019-05-11T06:21:01.412Z,93.17
2019-05-11T06:22:01.558Z,92.76
2019-05-11T06:23:01.757Z,91.02
2019-05-11T06:24:06.900Z,90.95
2019-05-11T06:25:04.066Z,91.94
2019-05-11T06:26:02.347Z,90.81
2019-05-11T06:27:02.407Z,90.91
2019-05-11T06:28:03.429Z,90.65
2019-05-11T06:29:02.826Z,92.19
2019-05-11T06:30:03.036Z,92.29
2019-05-11T06:31:03.271Z,93.12
2019-05-11T06:32:04.415Z,92.64
2019-05-11T06:33:03.680Z,93.67
2019-05-11T06:34:03.843Z,93.79
2019-05-11T06:35:04.019Z,93.79
2019-05-11T06:36:04.214Z,92.00
2019-05-11T06:37:04.397Z,92.10
2019-05-11T06:38:05.410Z,92.97
2019-05-11T06:39:04.824Z,92.72
2019-05-11T06:40:04.968Z,91.74
2019-05-11T06:41:05.911Z,92.04
2019-05-11T06:42:05.913Z,92.40
2019-05-11T06:43:05.449Z,93.42
2019-05-11T06:44:05.636Z,92.40
2019-05-11T06:45:05.779Z,93.93
2019-05-11T06:46:05.957Z,93.83
2019-05-11T06:47:06.169Z,93.83
2019-05-11T06:48:06.907Z,93.83
2019-05-11T06:49:06.591Z,92.19
2019-05-11T06:50:06.782Z,93.63
2019-05-11T06:51:07.907Z,93.32
2019-05-11T06:52:07.157Z,93.32
2019-05-11T06:53:07.334Z,93.98
2019-05-11T06:54:07.556Z,94.65
2019-05-11T06:55:07.742Z,94.24
2019-05-11T06:56:07.921Z,93.52
2019-05-11T06:57:08.104Z,93.83
2019-05-11T06:58:08.309Z,93.87
2019-05-11T06:59:08.531Z,93.42
2019-05-11T07:00:08.765Z,93.83
2019-05-11T07:01:08.824Z,93.32
2019-05-11T07:02:09.038Z,93.21
2019-05-11T07:03:09.911Z,93.52
2019-05-11T07:04:09.918Z,94.14
2019-05-11T07:05:09.555Z,93.87
2019-05-11T07:06:09.723Z,93.73
2019-05-11T07:07:09.876Z,94.24
2019-05-11T07:08:10.056Z,94.14
2019-05-11T07:09:10.299Z,94.24
2019-05-11T07:10:10.505Z,94.76
2019-05-11T07:11:11.426Z,94.85
2019-05-11T07:12:10.925Z,93.73
2019-05-11T07:13:11.091Z,94.14
2019-05-11T07:14:20.584Z,93.63
2019-05-11T07:15:13.294Z,94.45
2019-05-11T07:16:11.563Z,94.40
2019-05-11T07:17:11.735Z,94.81
2019-05-11T07:18:11.886Z,94.15
2019-05-11T07:19:12.054Z,93.08
2019-05-11T07:20:12.206Z,92.82
2019-05-11T07:21:13.359Z,93.85
2019-05-11T07:22:12.582Z,93.19
2019-05-11T07:23:12.728Z,91.90
2019-05-11T07:24:12.916Z,92.51
2019-05-11T07:25:13.058Z,92.63
2019-05-11T07:26:13.235Z,92.12
2019-05-11T07:27:13.407Z,91.09
2019-05-11T07:28:13.569Z,91.36
2019-05-11T07:29:13.746Z,90.84
2019-05-11T07:30:14.422Z,90.44
2019-05-11T07:31:14.089Z,90.30
2019-05-11T07:32:22.382Z,89.62
2019-05-11T07:33:18.259Z,90.39
2019-05-11T07:34:14.609Z,89.51
2019-05-11T07:35:14.778Z,89.83
2019-05-11T07:36:14.979Z,90.75
2019-05-11T07:37:15.154Z,88.86
2019-05-11T07:38:18.209Z,88.65
2019-05-11T07:39:15.507Z,89.98
2019-05-11T07:40:15.672Z,88.96
2019-05-11T07:41:17.630Z,89.17
2019-05-11T07:42:18.060Z,88.96
2019-05-11T07:43:18.560Z,88.24
2019-05-11T07:44:16.362Z,88.04
2019-05-11T07:45:18.042Z,87.73
2019-05-11T07:46:18.346Z,86.96
2019-05-11T07:47:18.677Z,88.43
2019-05-11T07:48:18.757Z,89.66
2019-05-11T07:49:18.345Z,89.70
2019-05-11T07:50:18.141Z,89.81
2019-05-11T07:51:18.719Z,90.46
2019-05-11T07:52:18.229Z,89.95
2019-05-11T07:53:18.962Z,90.52
2019-05-11T07:54:19.918Z,90.89
2019-05-11T07:55:19.213Z,90.03
2019-05-11T07:56:19.389Z,88.08
2019-05-11T07:57:18.803Z,89.27
2019-05-11T07:58:20.581Z,86.14
2019-05-11T07:59:20.933Z,89.42
2019-05-11T08:00:19.150Z,89.04
2019-05-11T08:01:19.317Z,88.80
2019-05-11T08:02:19.478Z,87.82
2019-05-11T08:03:19.613Z,89.50
2019-05-11T08:04:19.756Z,90.73
2019-05-11T08:05:19.907Z,91.55
2019-05-11T08:06:20.059Z,91.96
2019-05-11T08:07:20.253Z,91.82
2019-05-11T08:08:20.934Z,88.27
2019-05-11T08:09:20.566Z,90.16
2019-05-11T08:10:20.774Z,91.28
2019-05-11T08:11:20.927Z,91.49
2019-05-11T08:12:21.126Z,90.87
2019-05-11T08:13:21.277Z,91.49
2019-05-11T08:14:21.444Z,90.77
2019-05-11T08:15:21.605Z,90.52
2019-05-11T08:16:21.802Z,92.41
2019-05-11T08:17:21.954Z,92.10
2019-05-11T08:18:22.112Z,91.90
2019-05-11T08:19:22.270Z,92.10
2019-05-11T08:20:22.434Z,93.54
2019-05-11T08:21:23.428Z,94.10
2019-05-11T08:22:23.135Z,93.79
2019-05-11T08:23:23.969Z,93.95
2019-05-11T08:24:23.123Z,93.59
2019-05-11T08:25:23.280Z,94.10
2019-05-11T08:26:23.447Z,93.68
2019-05-11T08:27:23.615Z,93.38
2019-05-11T08:28:23.792Z,93.89
2019-05-11T08:29:23.932Z,94.46
2019-05-11T08:30:24.105Z,93.95
2019-05-11T08:31:24.255Z,93.85
2019-05-11T08:32:24.429Z,93.60
2019-05-11T08:33:24.627Z,93.60
2019-05-11T08:34:24.835Z,93.08
2019-05-11T08:35:30.383Z,92.36
2019-05-11T08:36:28.863Z,93.25
2019-05-11T08:37:25.286Z,90.22
2019-05-11T08:38:28.494Z,92.06
2019-05-11T08:39:25.638Z,91.03
2019-05-11T08:40:25.786Z,89.23
2019-05-11T08:41:28.012Z,91.14
2019-05-11T08:42:28.687Z,91.18
2019-05-11T08:43:28.504Z,91.59
2019-05-11T08:44:28.792Z,90.42
2019-05-11T08:45:27.931Z,90.56
2019-05-11T08:46:28.928Z,91.65
2019-05-11T08:47:28.354Z,90.83
2019-05-11T08:48:28.939Z,91.30
2019-05-11T08:49:28.711Z,91.40
2019-05-11T08:50:28.758Z,91.09
2019-05-11T08:51:28.143Z,91.40
2019-05-11T08:52:29.928Z,89.70
2019-05-11T08:53:28.549Z,90.73
2019-05-11T08:54:29.507Z,91.44
2019-05-11T08:55:29.081Z,90.93
2019-05-11T08:56:30.433Z,90.52
2019-05-11T08:57:29.079Z,90.73
2019-05-11T08:58:29.930Z,89.60
2019-05-11T08:59:29.491Z,91.65
2019-05-11T09:00:30.446Z,92.12
2019-05-11T09:01:31.332Z,91.61
2019-05-11T09:02:30.055Z,90.37
2019-05-11T09:03:30.935Z,91.50
2019-05-11T09:04:30.469Z,90.44
2019-05-11T09:05:30.648Z,92.28
2019-05-11T09:06:30.950Z,89.72
2019-05-11T09:07:31.008Z,90.54
2019-05-11T09:08:31.223Z,91.61
2019-05-11T09:09:31.406Z,91.26
2019-05-11T09:10:31.585Z,89.11
2019-05-11T09:11:31.784Z,91.26
2019-05-11T09:12:31.927Z,89.04
2019-05-11T09:13:32.117Z,89.42
2019-05-11T09:14:32.280Z,90.13
2019-05-11T09:15:37.229Z,89.21
2019-05-11T09:16:34.637Z,88.64
2019-05-11T09:17:32.746Z,91.26
2019-05-11T09:18:32.927Z,89.72
2019-05-11T09:19:33.112Z,91.42
2019-05-11T09:20:33.311Z,89.06
2019-05-11T09:21:33.499Z,87.57
2019-05-11T09:22:33.651Z,89.83
2019-05-11T09:23:37.648Z,89.97
2019-05-11T09:24:38.566Z,91.50
2019-05-11T09:25:34.443Z,89.51
2019-05-11T09:26:34.213Z,90.48
2019-05-11T09:27:34.399Z,91.77
2019-05-11T09:28:34.563Z,90.34
2019-05-11T09:29:34.755Z,89.72
2019-05-11T09:30:34.914Z,90.34
2019-05-11T09:31:35.094Z,91.97
2019-05-11T09:32:35.264Z,90.44
2019-05-11T09:33:35.430Z,91.46
2019-05-11T09:34:37.656Z,90.54
2019-05-11T09:35:49.184Z,91.05
2019-05-11T09:36:38.872Z,89.92
2019-05-11T09:37:38.075Z,91.52
2019-05-11T09:38:38.323Z,89.37
2019-05-11T09:39:38.322Z,89.62
2019-05-11T09:40:38.545Z,89.83
2019-05-11T09:41:38.335Z,90.37
2019-05-11T09:42:38.908Z,91.61
2019-05-11T09:43:38.186Z,91.71
2019-05-11T09:44:37.981Z,90.99
2019-05-11T09:45:48.248Z,91.97
2019-05-11T09:46:39.772Z,92.34
2019-05-11T09:47:38.579Z,89.53
2019-05-11T09:48:39.941Z,89.47
2019-05-11T09:49:46.633Z,90.30
2019-05-11T09:50:40.701Z,89.37
2019-05-11T09:51:38.797Z,89.00
2019-05-11T09:52:38.959Z,89.42
2019-05-11T09:53:39.152Z,90.34
2019-05-11T09:54:39.318Z,90.75
2019-05-11T09:55:39.469Z,90.34
2019-05-11T09:56:39.644Z,91.77
2019-05-11T09:57:39.815Z,91.46
2019-05-11T09:58:40.023Z,88.29
2019-05-11T09:59:41.174Z,89.51
2019-05-11T10:00:41.965Z,90.19
2019-05-11T10:01:40.493Z,87.63
2019-05-11T10:02:40.663Z,88.08
2019-05-11T10:03:40.866Z,87.84
2019-05-11T10:04:41.047Z,87.84
2019-05-11T10:05:41.256Z,88.00
2019-05-11T10:06:41.398Z,87.70
2019-05-11T10:07:41.556Z,89.59
2019-05-11T10:08:41.956Z,86.83
2019-05-11T10:09:41.868Z,85.96
2019-05-11T10:10:42.035Z,86.67
2019-05-11T10:11:42.170Z,87.59
2019-05-11T10:12:42.309Z,85.85
2019-05-11T10:13:42.470Z,86.10
2019-05-11T10:14:42.641Z,87.94
2019-05-11T10:15:42.784Z,87.90
2019-05-11T10:16:42.930Z,88.82
2019-05-11T10:17:43.941Z,87.43
2019-05-11T10:18:43.472Z,88.56
2019-05-11T10:19:46.495Z,89.53
2019-05-11T10:20:43.634Z,89.86
2019-05-11T10:21:43.772Z,88.70
2019-05-11T10:22:43.921Z,87.12
2019-05-11T10:23:44.063Z,85.42
2019-05-11T10:24:44.223Z,86.79
2019-05-11T10:25:44.351Z,85.77
2019-05-11T10:26:44.496Z,86.83
2019-05-11T10:27:44.954Z,88.98
2019-05-11T10:28:47.941Z,88.62
2019-05-11T10:29:45.458Z,89.39
2019-05-11T10:30:45.237Z,88.88
2019-05-11T10:31:45.391Z,89.80
2019-05-11T10:32:45.532Z,88.53
2019-05-11T10:33:48.661Z,88.12
2019-05-11T10:34:47.778Z,87.00
2019-05-11T10:35:48.307Z,87.55
2019-05-11T10:36:48.605Z,88.20
2019-05-11T10:37:47.891Z,87.04
2019-05-11T10:38:48.626Z,89.18
2019-05-11T10:39:48.835Z,87.96
2019-05-11T10:40:48.487Z,86.32
2019-05-11T10:41:47.988Z,87.51
2019-05-11T10:42:48.545Z,86.69
2019-05-11T10:43:49.206Z,87.88
2019-05-11T10:44:48.670Z,83.69
2019-05-11T10:45:48.480Z,85.63
2019-05-11T10:46:48.920Z,86.71
2019-05-11T10:47:48.910Z,85.18
2019-05-11T10:48:49.205Z,84.53
2019-05-11T10:49:48.945Z,83.24
2019-05-11T10:50:48.541Z,84.41
2019-05-11T10:51:48.762Z,86.30
2019-05-11T10:52:49.730Z,86.06
2019-05-11T10:53:51.939Z,83.30
2019-05-11T10:54:50.942Z,85.00
2019-05-11T10:55:49.303Z,82.10
2019-05-11T10:56:49.465Z,81.84
2019-05-11T10:57:49.632Z,83.26
2019-05-11T10:58:49.778Z,83.04
2019-05-11T10:59:49.965Z,83.79
2019-05-11T11:00:50.175Z,83.93
2019-05-11T11:01:50.338Z,85.83
2019-05-11T11:02:51.445Z,85.73
2019-05-11T11:03:50.722Z,83.59
2019-05-11T11:04:50.891Z,83.89
2019-05-11T11:05:51.077Z,85.26
2019-05-11T11:06:51.225Z,85.42
2019-05-11T11:07:51.357Z,86.76
2019-05-11T11:08:51.521Z,84.61
2019-05-11T11:09:52.458Z,84.57
2019-05-11T11:10:51.876Z,82.42
2019-05-11T11:11:52.071Z,82.32
2019-05-11T11:12:52.232Z,83.89
2019-05-11T11:13:52.408Z,83.38
2019-05-11T11:14:52.559Z,83.44
2019-05-11T11:15:52.733Z,83.04
2019-05-11T11:16:53.448Z,83.28
2019-05-11T11:17:53.112Z,84.81
2019-05-11T11:18:53.259Z,85.59
2019-05-11T11:19:53.413Z,83.07
2019-05-11T11:20:53.588Z,84.30
2019-05-11T11:21:53.740Z,83.24
2019-05-11T11:22:53.926Z,82.36
2019-05-11T11:23:54.055Z,82.93
2019-05-11T11:24:54.225Z,82.70
2019-05-11T11:25:54.360Z,83.32
2019-05-11T11:26:54.578Z,85.40
2019-05-11T11:27:54.720Z,87.35
2019-05-11T11:28:54.852Z,86.29
2019-05-11T11:29:54.981Z,83.38
2019-05-11T11:30:55.218Z,82.70
2019-05-11T11:31:55.367Z,83.97
2019-05-11T11:32:55.496Z,84.38
2019-05-11T11:33:58.394Z,84.69
2019-05-11T11:34:57.809Z,85.16
2019-05-11T11:35:58.012Z,82.60
2019-05-11T11:36:58.033Z,82.84
2019-05-11T11:37:58.486Z,84.03
2019-05-11T11:38:58.506Z,82.91
2019-05-11T11:39:58.133Z,83.83
2019-05-11T11:40:58.688Z,83.83
2019-05-11T11:41:58.695Z,82.75
2019-05-11T11:42:58.962Z,84.07
2019-05-11T11:43:58.648Z,83.87
2019-05-11T11:44:58.911Z,82.40
2019-05-11T11:45:58.753Z,83.15
2019-05-11T11:46:59.290Z,83.76
2019-05-11T11:47:59.164Z,83.60
2019-05-11T11:48:58.385Z,83.91
2019-05-11T11:49:58.589Z,84.36
2019-05-11T11:50:58.733Z,84.56
2019-05-11T11:51:58.881Z,84.93
2019-05-11T11:52:59.468Z,85.40
2019-05-11T11:53:59.190Z,82.23
2019-05-11T11:54:59.321Z,83.56
2019-05-11T11:55:59.446Z,83.32
2019-05-11T11:56:59.568Z,81.51
2019-05-11T11:57:59.756Z,81.62
2019-05-11T11:58:59.913Z,81.82
2019-05-11T12:00:00.065Z,81.93
2019-05-11T12:01:00.231Z,79.88
2019-05-11T12:02:00.394Z,80.80
2019-05-11T12:03:00.546Z,82.34
2019-05-11T12:04:00.686Z,81.82
2019-05-11T12:05:00.819Z,81.56
2019-05-11T12:06:00.974Z,80.12
2019-05-11T12:07:01.159Z,81.65
2019-05-11T12:08:01.311Z,81.79
2019-05-11T12:09:01.957Z,82.34
2019-05-11T12:10:01.970Z,79.88
2019-05-11T12:11:01.752Z,80.08
2019-05-11T12:12:02.473Z,80.60
2019-05-11T12:13:02.989Z,81.72
2019-05-11T12:14:02.374Z,79.64
2019-05-11T12:15:02.526Z,79.84
2019-05-11T12:16:02.666Z,78.72
2019-05-11T12:17:07.761Z,79.02
2019-05-11T12:18:05.457Z,79.37
2019-05-11T12:19:05.382Z,80.49
2019-05-11T12:20:04.302Z,82.54
2019-05-11T12:21:03.475Z,80.63
2019-05-11T12:22:04.460Z,80.53
2019-05-11T12:23:03.846Z,81.86
2019-05-11T12:24:03.987Z,81.86
2019-05-11T12:25:04.127Z,81.56
2019-05-11T12:26:04.490Z,81.82
2019-05-11T12:27:04.510Z,81.93
2019-05-11T12:28:04.659Z,81.93
2019-05-11T12:29:08.002Z,80.39
2019-05-11T12:30:05.043Z,81.56
2019-05-11T12:31:05.204Z,82.10
2019-05-11T12:32:05.344Z,82.37
2019-05-11T12:33:05.483Z,82.37
2019-05-11T12:34:05.629Z,81.56
2019-05-11T12:35:05.803Z,81.45
2019-05-11T12:36:07.965Z,81.86
2019-05-11T12:37:08.505Z,81.49
2019-05-11T12:38:07.844Z,81.90
2019-05-11T12:39:08.355Z,82.76
2019-05-11T12:40:08.475Z,81.84
2019-05-11T12:41:08.810Z,81.94
2019-05-11T12:42:08.638Z,83.68
2019-05-11T12:43:08.969Z,83.47
2019-05-11T12:44:08.355Z,82.92
2019-05-11T12:45:08.572Z,82.62
2019-05-11T12:46:08.213Z,82.71
2019-05-11T12:47:21.066Z,83.09
2019-05-11T12:48:10.131Z,82.34
2019-05-11T12:49:08.979Z,82.89
2019-05-11T12:50:08.492Z,82.84
2019-05-11T12:51:08.683Z,82.27
2019-05-11T12:52:08.880Z,82.03
2019-05-11T12:53:09.008Z,82.23
2019-05-11T12:54:10.272Z,81.21
2019-05-11T12:55:09.501Z,81.41